Hampton, NH

9:23 AM EDT on August 26, 2016 (GMT -0400)
Towle Farm | | Change Station

Elev 56 ft 42.94 °N, 70.85 °W | Updated 14 minutes ago

Overcast
Overcast
74.5 °F
Feels Like 74 °F
N
2.0
Wind Variable Wind from WSW
Gusts 3.0 mph

Today
High -- | Low -- °F
--% Chance of Precip.
Yesterday
High -- | Low -- °F
Precip. -- in
Pressure 29.94 in
Visibility 10.0 miles
Clouds Mostly Cloudy 6500 ft
Mostly Cloudy 12000 ft
Overcast 25000 ft
Heat Index 74 °F
Dew Point 70 °F
Humidity 86%
Rainfall 0.00 in
Snow Depth Not available.
6:01 AM 7:27 PM
Waning Crescent, 34% visible
METAR KPSM 261258Z 27004KT 10SM VCSH BKN065 BKN120 OVC250 24/20 A2993 RMK AO2A SLP137 T02350199
Pressure 29.94 in
Visibility 10.0 miles
Clouds Mostly Cloudy 6500 ft
Mostly Cloudy 12000 ft
Overcast 25000 ft
Heat Index 74 °F
Dew Point 70 °F
Humidity 86%
Rainfall 0.00 in
Snow Depth Not available.
6:01 AM 7:27 PM
Waning Crescent, 34% visible
METAR KPSM 261258Z 27004KT 10SM VCSH BKN065 BKN120 OVC250 24/20 A2993 RMK AO2A SLP137 T02350199

10-Day Weather Forecast

Almanac

Astronomy

Aug. 26, 2016 Rise Set
Actual Time
Civil Twilight
Nautical Twilight
Astronomical Twilight
Moon
Length of Visible Light
Length of Day
Tomorrow will be .
, % of the Moon is Illuminated

Today's Extremes

State Highs State Lows

Community

WunderPhotos

Upload Photos

1,935,084 photos uploaded!

WunderBlog® & News

Nearby

Air Quality

  Air Quality AQ Index Pollutant
Not available.

Snow Depth

Station Depth Elevation

Earthquake Activity

City Distance Mag. Time & Date
Minimum magnitude displayed is 2.5.

Coastal Water Temperatures

Place Temperature

Stations

Nearby Weather Stations

Station Location Temp. Windchill Dew Point Humidity Wind Precip. Elev Updated Type
                   

Watches & Warnings

There are currently no watches in effect.